sensor_id;sensor_type;location;lat;lon;timestamp;pressure;altitude;pressure_sealevel;temperature;humidity
37206;BME280;23099;42.636;23.198;2023-01-25T00:01:51;92913.19;;;-0.38;100.00
37206;BME280;23099;42.636;23.198;2023-01-25T00:04:19;92903.50;;;-0.43;100.00
37206;BME280;23099;42.636;23.198;2023-01-25T00:06:47;92913.97;;;-0.32;100.00
37206;BME280;23099;42.636;23.198;2023-01-25T00:09:14;92914.97;;;-0.28;100.00
37206;BME280;23099;42.636;23.198;2023-01-25T00:11:42;92916.28;;;-0.26;100.00
37206;BME280;23099;42.636;23.198;2023-01-25T00:14:09;92915.81;;;-0.38;100.00
37206;BME280;23099;42.636;23.198;2023-01-25T00:16:36;92908.41;;;-0.26;100.00
37206;BME280;23099;42.636;23.198;2023-01-25T00:19:03;92912.41;;;-0.39;100.00
37206;BME280;23099;42.636;23.198;2023-01-25T00:21:30;92913.19;;;-0.33;100.00
37206;BME280;23099;42.636;23.198;2023-01-25T00:23:59;92905.84;;;-0.41;100.00
37206;BME280;23099;42.636;23.198;2023-01-25T00:26:28;92907.19;;;-0.44;100.00
37206;BME280;23099;42.636;23.198;2023-01-25T00:28:55;92918.97;;;-0.41;100.00
37206;BME280;23099;42.636;23.198;2023-01-25T00:31:31;92907.69;;;-0.37;100.00
37206;BME280;23099;42.636;23.198;2023-01-25T00:34:09;92908.81;;;-0.53;100.00
37206;BME280;23099;42.636;23.198;2023-01-25T00:36:49;92907.19;;;-0.44;100.00
37206;BME280;23099;42.636;23.198;2023-01-25T00:39:17;92912.47;;;-0.54;100.00
37206;BME280;23099;42.636;23.198;2023-01-25T00:41:44;92913.31;;;-0.58;100.00
37206;BME280;23099;42.636;23.198;2023-01-25T00:44:11;92905.38;;;-0.48;100.00
37206;BME280;23099;42.636;23.198;2023-01-25T00:46:38;92916.91;;;-0.44;100.00
37206;BME280;23099;42.636;23.198;2023-01-25T00:49:05;92919.56;;;-0.49;100.00
37206;BME280;23099;42.636;23.198;2023-01-25T00:51:32;92918.00;;;-0.55;100.00
37206;BME280;23099;42.636;23.198;2023-01-25T00:53:58;92916.13;;;-0.45;100.00
37206;BME280;23099;42.636;23.198;2023-01-25T00:56:26;92914.28;;;-0.44;100.00
37206;BME280;23099;42.636;23.198;2023-01-25T00:58:53;92914.78;;;-0.42;100.00
37206;BME280;23099;42.636;23.198;2023-01-25T01:01:20;92912.13;;;-0.37;100.00
37206;BME280;23099;42.636;23.198;2023-01-25T01:03:46;92907.22;;;-0.49;100.00
37206;BME280;23099;42.636;23.198;2023-01-25T01:06:13;92919.53;;;-0.44;100.00
37206;BME280;23099;42.636;23.198;2023-01-25T01:08:41;92916.91;;;-0.44;100.00
37206;BME280;23099;42.636;23.198;2023-01-25T01:11:09;92912.13;;;-0.32;100.00
37206;BME280;23099;42.636;23.198;2023-01-25T01:13:38;92913.19;;;-0.33;100.00
37206;BME280;23099;42.636;23.198;2023-01-25T01:16:07;92904.53;;;-0.39;100.00
37206;BME280;23099;42.636;23.198;2023-01-25T01:18:38;92916.84;;;-0.29;100.00
37206;BME280;23099;42.636;23.198;2023-01-25T01:21:05;92915.31;;;-0.40;100.00
37206;BME280;23099;42.636;23.198;2023-01-25T01:23:33;92902.97;;;-0.40;100.00
37206;BME280;23099;42.636;23.198;2023-01-25T01:26:01;92904.47;;;-0.28;100.00
37206;BME280;23099;42.636;23.198;2023-01-25T01:28:29;92901.53;;;-0.17;100.00
37206;BME280;23099;42.636;23.198;2023-01-25T01:31:00;92903.81;;;-0.05;100.00
37206;BME280;23099;42.636;23.198;2023-01-25T01:33:27;92898.31;;;-0.09;100.00
37206;BME280;23099;42.636;23.198;2023-01-25T01:35:53;92896.31;;;-0.22;100.00
37206;BME280;23099;42.636;23.198;2023-01-25T01:38:20;92889.75;;;-0.24;100.00
37206;BME280;23099;42.636;23.198;2023-01-25T01:40:48;92894.25;;;-0.30;100.00
37206;BME280;23099;42.636;23.198;2023-01-25T01:43:16;92897.69;;;-0.34;100.00
37206;BME280;23099;42.636;23.198;2023-01-25T01:45:52;92894.78;;;-0.33;100.00
37206;BME280;23099;42.636;23.198;2023-01-25T01:48:32;92885.94;;;-0.47;100.00
37206;BME280;23099;42.636;23.198;2023-01-25T01:51:02;92894.56;;;-0.42;100.00
37206;BME280;23099;42.636;23.198;2023-01-25T01:53:32;92885.97;;;-0.57;100.00
37206;BME280;23099;42.636;23.198;2023-01-25T01:56:01;92889.13;;;-0.55;100.00
37206;BME280;23099;42.636;23.198;2023-01-25T01:58:31;92890.69;;;-0.54;100.00
37206;BME280;23099;42.636;23.198;2023-01-25T02:00:58;92900.91;;;-0.48;100.00
37206;BME280;23099;42.636;23.198;2023-01-25T02:03:27;92893.81;;;-0.47;100.00
37206;BME280;23099;42.636;23.198;2023-01-25T02:05:57;92881.56;;;-0.67;100.00
37206;BME280;23099;42.636;23.198;2023-01-25T02:08:29;92891.53;;;-0.69;100.00
37206;BME280;23099;42.636;23.198;2023-01-25T02:10:59;92889.94;;;-0.60;100.00
37206;BME280;23099;42.636;23.198;2023-01-25T02:13:26;92886.47;;;-0.50;100.00
37206;BME280;23099;42.636;23.198;2023-01-25T02:15:53;92882.47;;;-0.43;100.00
37206;BME280;23099;42.636;23.198;2023-01-25T02:18:22;92885.91;;;-0.42;100.00
37206;BME280;23099;42.636;23.198;2023-01-25T02:20:52;92881.41;;;-0.37;100.00
37206;BME280;23099;42.636;23.198;2023-01-25T02:23:24;92883.31;;;-0.47;100.00
37206;BME280;23099;42.636;23.198;2023-01-25T02:26:00;92886.19;;;-0.44;100.00
37206;BME280;23099;42.636;23.198;2023-01-25T02:28:30;92881.94;;;-0.34;100.00
37206;BME280;23099;42.636;23.198;2023-01-25T02:30:58;92879.84;;;-0.38;100.00
37206;BME280;23099;42.636;23.198;2023-01-25T02:33:26;92880.16;;;-0.44;100.00
37206;BME280;23099;42.636;23.198;2023-01-25T02:35:57;92874.16;;;-0.55;100.00
37206;BME280;23099;42.636;23.198;2023-01-25T02:38:27;92876.19;;;-0.42;100.00
37206;BME280;23099;42.636;23.198;2023-01-25T02:41:01;92878.09;;;-0.52;100.00
37206;BME280;23099;42.636;23.198;2023-01-25T02:43:31;92878.63;;;-0.55;100.00
37206;BME280;23099;42.636;23.198;2023-01-25T02:46:05;92876.81;;;-0.60;100.00
37206;BME280;23099;42.636;23.198;2023-01-25T02:48:35;92874.13;;;-0.50;100.00
37206;BME280;23099;42.636;23.198;2023-01-25T02:51:02;92876.44;;;-0.43;100.00
37206;BME280;23099;42.636;23.198;2023-01-25T02:53:31;92875.97;;;-0.50;100.00
37206;BME280;23099;42.636;23.198;2023-01-25T02:55:59;92880.63;;;-0.37;100.00
37206;BME280;23099;42.636;23.198;2023-01-25T02:58:26;92881.94;;;-0.40;100.00
37206;BME280;23099;42.636;23.198;2023-01-25T03:00:54;92882.00;;;-0.45;100.00
37206;BME280;23099;42.636;23.198;2023-01-25T03:03:21;92884.84;;;-0.41;100.00
37206;BME280;23099;42.636;23.198;2023-01-25T03:05:47;92884.63;;;-0.50;100.00
37206;BME280;23099;42.636;23.198;2023-01-25T03:08:14;92878.84;;;-0.47;100.00
37206;BME280;23099;42.636;23.198;2023-01-25T03:10:41;92868.56;;;-0.43;100.00
37206;BME280;23099;42.636;23.198;2023-01-25T03:13:09;92879.31;;;-0.34;100.00
37206;BME280;23099;42.636;23.198;2023-01-25T03:15:36;92883.78;;;-0.35;100.00
37206;BME280;23099;42.636;23.198;2023-01-25T03:18:03;92883.31;;;-0.52;100.00
37206;BME280;23099;42.636;23.198;2023-01-25T03:20:30;92872.28;;;-0.49;100.00
37206;BME280;23099;42.636;23.198;2023-01-25T03:22:56;92879.59;;;-0.41;100.00
37206;BME280;23099;42.636;23.198;2023-01-25T03:25:23;92881.16;;;-0.40;100.00
37206;BME280;23099;42.636;23.198;2023-01-25T03:27:50;92880.94;;;-0.44;100.00
37206;BME280;23099;42.636;23.198;2023-01-25T03:30:18;92879.59;;;-0.41;100.00
37206;BME280;23099;42.636;23.198;2023-01-25T03:32:44;92880.41;;;-0.46;100.00
37206;BME280;23099;42.636;23.198;2023-01-25T03:35:11;92889.81;;;-0.40;100.00
37206;BME280;23099;42.636;23.198;2023-01-25T03:37:38;92885.09;;;-0.43;100.00
37206;BME280;23099;42.636;23.198;2023-01-25T03:40:05;92873.09;;;-0.49;100.00
37206;BME280;23099;42.636;23.198;2023-01-25T03:42:32;92882.00;;;-0.45;100.00
37206;BME280;23099;42.636;23.198;2023-01-25T03:44:59;92869.91;;;-0.46;100.00
37206;BME280;23099;42.636;23.198;2023-01-25T03:47:27;92869.91;;;-0.46;100.00
37206;BME280;23099;42.636;23.198;2023-01-25T03:49:53;92869.91;;;-0.46;100.00
37206;BME280;23099;42.636;23.198;2023-01-25T03:55:52;92861.44;;;-0.32;100.00
37206;BME280;23099;42.636;23.198;2023-01-25T03:58:20;92862.78;;;-0.40;100.00
37206;BME280;23099;42.636;23.198;2023-01-25T04:00:47;92864.94;;;-0.52;100.00
37206;BME280;23099;42.636;23.198;2023-01-25T04:03:15;92857.59;;;-0.50;100.00
37206;BME280;23099;42.636;23.198;2023-01-25T04:05:44;92856.53;;;-0.44;100.00
37206;BME280;23099;42.636;23.198;2023-01-25T04:08:11;92855.25;;;-0.57;100.00
37206;BME280;23099;42.636;23.198;2023-01-25T04:10:37;92849.25;;;-0.62;100.00
37206;BME280;23099;42.636;23.198;2023-01-25T04:13:04;92848.75;;;-0.64;100.00
37206;BME280;23099;42.636;23.198;2023-01-25T04:15:31;92845.28;;;-0.55;100.00
37206;BME280;23099;42.636;23.198;2023-01-25T04:17:57;92857.59;;;-0.50;100.00
37206;BME280;23099;42.636;23.198;2023-01-25T04:20:26;92852.94;;;-0.58;100.00
37206;BME280;23099;42.636;23.198;2023-01-25T04:22:52;92853.22;;;-0.70;100.00
37206;BME280;23099;42.636;23.198;2023-01-25T04:25:19;92848.75;;;-0.64;100.00
37206;BME280;23099;42.636;23.198;2023-01-25T04:27:45;92854.75;;;-0.59;100.00
37206;BME280;23099;42.636;23.198;2023-01-25T04:30:12;92855.56;;;-0.58;100.00
37206;BME280;23099;42.636;23.198;2023-01-25T04:32:39;92856.63;;;-0.64;100.00
37206;BME280;23099;42.636;23.198;2023-01-25T04:35:06;92867.31;;;-0.56;100.00
37206;BME280;23099;42.636;23.198;2023-01-25T04:37:34;92864.16;;;-0.48;100.00
37206;BME280;23099;42.636;23.198;2023-01-25T04:40:01;92866.19;;;-0.40;100.00
37206;BME280;23099;42.636;23.198;2023-01-25T04:42:28;92863.63;;;-0.50;100.00
37206;BME280;23099;42.636;23.198;2023-01-25T04:44:55;92861.28;;;-0.56;100.00
37206;BME280;23099;42.636;23.198;2023-01-25T04:47:21;92863.91;;;-0.56;100.00
37206;BME280;23099;42.636;23.198;2023-01-25T04:49:49;92864.75;;;-0.66;100.00
37206;BME280;23099;42.636;23.198;2023-01-25T04:52:16;92864.47;;;-0.59;100.00
37206;BME280;23099;42.636;23.198;2023-01-25T04:54:44;92870.78;;;-0.60;100.00
37206;BME280;23099;42.636;23.198;2023-01-25T04:57:11;92871.03;;;-0.62;100.00
37206;BME280;23099;42.636;23.198;2023-01-25T04:59:38;92864.28;;;-0.78;100.00
37206;BME280;23099;42.636;23.198;2023-01-25T05:02:04;92872.22;;;-0.88;100.00
37206;BME280;23099;42.636;23.198;2023-01-25T05:04:31;92871.91;;;-0.82;100.00
37206;BME280;23099;42.636;23.198;2023-01-25T05:06:57;92877.97;;;-0.86;100.00
37206;BME280;23099;42.636;23.198;2023-01-25T05:09:24;92878.00;;;-0.96;100.00
37206;BME280;23099;42.636;23.198;2023-01-25T05:11:52;92876.69;;;-0.94;100.00
37206;BME280;23099;42.636;23.198;2023-01-25T05:14:19;92876.63;;;-0.84;100.00
37206;BME280;23099;42.636;23.198;2023-01-25T05:16:46;92878.47;;;-0.84;100.00
37206;BME280;23099;42.636;23.198;2023-01-25T05:19:13;92872.72;;;-0.86;100.00
37206;BME280;23099;42.636;23.198;2023-01-25T05:21:39;92870.34;;;-0.78;100.00
37206;BME280;23099;42.636;23.198;2023-01-25T05:24:24;92865.88;;;-0.77;100.00
37206;BME280;23099;42.636;23.198;2023-01-25T05:26:53;92863.50;;;-0.79;100.00
37206;BME280;23099;42.636;23.198;2023-01-25T05:29:26;92876.06;;;-0.71;100.00
37206;BME280;23099;42.636;23.198;2023-01-25T05:31:53;92871.84;;;-0.66;100.00
37206;BME280;23099;42.636;23.198;2023-01-25T05:34:20;92879.41;;;-0.55;100.00
37206;BME280;23099;42.636;23.198;2023-01-25T05:36:46;92877.03;;;-0.56;100.00
37206;BME280;23099;42.636;23.198;2023-01-25T05:39:13;92860.81;;;-0.63;100.00
37206;BME280;23099;42.636;23.198;2023-01-25T05:41:40;92867.38;;;-0.61;100.00
37206;BME280;23099;42.636;23.198;2023-01-25T05:44:08;92868.19;;;-0.71;100.00
37206;BME280;23099;42.636;23.198;2023-01-25T05:46:35;92872.13;;;-0.68;100.00
37206;BME280;23099;42.636;23.198;2023-01-25T05:49:01;92871.84;;;-0.66;100.00
37206;BME280;23099;42.636;23.198;2023-01-25T05:51:28;92877.59;;;-0.59;100.00
37206;BME280;23099;42.636;23.198;2023-01-25T05:53:55;92878.13;;;-0.62;100.00
37206;BME280;23099;42.636;23.198;2023-01-25T05:56:22;92880.50;;;-0.61;100.00
37206;BME280;23099;42.636;23.198;2023-01-25T05:58:51;92882.63;;;-0.68;100.00
37206;BME280;23099;42.636;23.198;2023-01-25T06:01:20;92881.53;;;-0.62;100.00
37206;BME280;23099;42.636;23.198;2023-01-25T06:03:47;92878.13;;;-0.62;100.00
37206;BME280;23099;42.636;23.198;2023-01-25T06:06:14;92882.06;;;-0.60;100.00
37206;BME280;23099;42.636;23.198;2023-01-25T06:08:40;92885.97;;;-0.52;100.00
37206;BME280;23099;42.636;23.198;2023-01-25T06:11:08;92883.31;;;-0.52;100.00
37206;BME280;23099;42.636;23.198;2023-01-25T06:13:34;92883.38;;;-0.62;100.00
37206;BME280;23099;42.636;23.198;2023-01-25T06:16:01;92877.88;;;-0.61;100.00
37206;BME280;23099;42.636;23.198;2023-01-25T06:18:31;92881.81;;;-0.58;100.00
37206;BME280;23099;42.636;23.198;2023-01-25T06:20:59;92900.19;;;-0.58;100.00
37206;BME280;23099;42.636;23.198;2023-01-25T06:23:26;92880.50;;;-0.61;100.00
37206;BME280;23099;42.636;23.198;2023-01-25T06:25:57;92876.84;;;-0.65;100.00
37206;BME280;23099;42.636;23.198;2023-01-25T06:28:23;92875.25;;;-0.61;100.00
37206;BME280;23099;42.636;23.198;2023-01-25T06:30:50;92876.56;;;-0.68;100.00
37206;BME280;23099;42.636;23.198;2023-01-25T06:33:17;92878.16;;;-0.67;100.00
37206;BME280;23099;42.636;23.198;2023-01-25T06:35:45;92875.53;;;-0.67;100.00
37206;BME280;23099;42.636;23.198;2023-01-25T06:38:12;92873.41;;;-0.65;100.00
37206;BME280;23099;42.636;23.198;2023-01-25T06:40:38;92871.84;;;-0.66;100.00
37206;BME280;23099;42.636;23.198;2023-01-25T06:43:05;92876.09;;;-0.76;100.00
37206;BME280;23099;42.636;23.198;2023-01-25T06:45:32;92875.56;;;-0.78;100.00
37206;BME280;23099;42.636;23.198;2023-01-25T06:47:59;92874.00;;;-0.74;100.00
37206;BME280;23099;42.636;23.198;2023-01-25T06:50:26;92877.69;;;-0.80;100.00
37206;BME280;23099;42.636;23.198;2023-01-25T06:52:54;92874.06;;;-0.89;100.00
37206;BME280;23099;42.636;23.198;2023-01-25T06:55:21;92870.31;;;-0.73;100.00
37206;BME280;23099;42.636;23.198;2023-01-25T06:57:48;92873.47;;;-0.76;100.00
37206;BME280;23099;42.636;23.198;2023-01-25T07:00:16;92871.31;;;-0.68;100.00
37206;BME280;23099;42.636;23.198;2023-01-25T07:02:43;92869.22;;;-0.66;100.00
37206;BME280;23099;42.636;23.198;2023-01-25T07:05:10;92865.59;;;-0.76;100.00
37206;BME280;23099;42.636;23.198;2023-01-25T07:07:36;92864.81;;;-0.76;100.00
37206;BME280;23099;42.636;23.198;2023-01-25T07:10:05;92867.91;;;-0.69;100.00
37206;BME280;23099;42.636;23.198;2023-01-25T07:12:32;92867.13;;;-0.64;100.00
37206;BME280;23099;42.636;23.198;2023-01-25T07:14:59;92869.50;;;-0.68;100.00
37206;BME280;23099;42.636;23.198;2023-01-25T07:17:25;92881.56;;;-0.67;100.00
37206;BME280;23099;42.636;23.198;2023-01-25T07:19:52;92870.50;;;-0.59;100.00
37206;BME280;23099;42.636;23.198;2023-01-25T07:22:19;92879.41;;;-0.55;100.00
37206;BME280;23099;42.636;23.198;2023-01-25T07:24:45;92879.19;;;-0.63;100.00
37206;BME280;23099;42.636;23.198;2023-01-25T07:27:16;92864.50;;;-0.64;100.00
37206;BME280;23099;42.636;23.198;2023-01-25T07:29:43;92883.03;;;-0.46;100.00
37206;BME280;23099;42.636;23.198;2023-01-25T07:32:11;92886.69;;;-0.42;100.00
37206;BME280;23099;42.636;23.198;2023-01-25T07:34:38;92891.97;;;-0.47;100.00
37206;BME280;23099;42.636;23.198;2023-01-25T07:37:04;92893.31;;;-0.49;100.00
37206;BME280;23099;42.636;23.198;2023-01-25T07:39:31;92898.56;;;-0.49;100.00
37206;BME280;23099;42.636;23.198;2023-01-25T07:41:58;92894.28;;;-0.40;100.00
37206;BME280;23099;42.636;23.198;2023-01-25T07:44:26;92899.81;;;-0.42;100.00
37206;BME280;23099;42.636;23.198;2023-01-25T07:46:52;92900.06;;;-0.38;100.00
37206;BME280;23099;42.636;23.198;2023-01-25T07:49:19;92894.28;;;-0.35;100.00
37206;BME280;23099;42.636;23.198;2023-01-25T07:51:46;92895.41;;;-0.51;100.00
37206;BME280;23099;42.636;23.198;2023-01-25T07:54:13;92903.78;;;-0.44;100.00
37206;BME280;23099;42.636;23.198;2023-01-25T07:56:39;92903.47;;;-0.38;100.00
37206;BME280;23099;42.636;23.198;2023-01-25T07:59:10;92893.31;;;-0.49;100.00
37206;BME280;23099;42.636;23.198;2023-01-25T08:01:40;92892.75;;;-0.46;100.00
37206;BME280;23099;42.636;23.198;2023-01-25T08:04:06;92889.88;;;-0.50;100.00
37206;BME280;23099;42.636;23.198;2023-01-25T08:06:35;92890.69;;;-0.49;100.00
37206;BME280;23099;42.636;23.198;2023-01-25T08:09:05;92887.78;;;-0.53;100.00
37206;BME280;23099;42.636;23.198;2023-01-25T08:11:32;92880.25;;;-0.64;100.00
37206;BME280;23099;42.636;23.198;2023-01-25T08:13:59;92889.13;;;-0.55;100.00
37206;BME280;23099;42.636;23.198;2023-01-25T08:16:28;92893.84;;;-0.57;100.00
37206;BME280;23099;42.636;23.198;2023-01-25T08:18:58;92895.97;;;-0.59;100.00
37206;BME280;23099;42.636;23.198;2023-01-25T08:21:26;92892.00;;;-0.52;100.00
37206;BME280;23099;42.636;23.198;2023-01-25T08:23:55;92886.81;;;-0.62;100.00
37206;BME280;23099;42.636;23.198;2023-01-25T08:26:22;92894.16;;;-0.59;100.00
37206;BME280;23099;42.636;23.198;2023-01-25T08:28:49;92889.94;;;-0.60;100.00
37206;BME280;23099;42.636;23.198;2023-01-25T08:31:21;92889.16;;;-0.60;100.00
37206;BME280;23099;42.636;23.198;2023-01-25T08:33:47;92884.56;;;-0.40;100.00
37206;BME280;23099;42.636;23.198;2023-01-25T08:36:17;92884.06;;;-0.42;100.00
37206;BME280;23099;42.636;23.198;2023-01-25T08:38:44;92883.53;;;-0.39;100.00
37206;BME280;23099;42.636;23.198;2023-01-25T08:41:13;92883.44;;;-0.28;100.00
37206;BME280;23099;42.636;23.198;2023-01-25T08:43:40;92880.88;;;-0.33;100.00
37206;BME280;23099;42.636;23.198;2023-01-25T08:46:08;92875.91;;;-0.40;100.00
37206;BME280;23099;42.636;23.198;2023-01-25T08:48:35;92879.31;;;-0.34;100.00
37206;BME280;23099;42.636;23.198;2023-01-25T08:51:02;92869.34;;;-0.38;100.00
37206;BME280;23099;42.636;23.198;2023-01-25T08:53:31;92877.22;;;-0.43;100.00
37206;BME280;23099;42.636;23.198;2023-01-25T08:56:02;92878.28;;;-0.39;100.00
37206;BME280;23099;42.636;23.198;2023-01-25T08:58:29;92874.34;;;-0.41;100.00
37206;BME280;23099;42.636;23.198;2023-01-25T09:01:00;92878.25;;;-0.33;100.00
37206;BME280;23099;42.636;23.198;2023-01-25T09:03:27;92869.59;;;-0.34;100.00
37206;BME280;23099;42.636;23.198;2023-01-25T09:05:54;92883.94;;;-0.21;100.00
37206;BME280;23099;42.636;23.198;2023-01-25T09:08:21;92876.06;;;-0.21;100.00
37206;BME280;23099;42.636;23.198;2023-01-25T09:10:49;92879.00;;;-0.28;100.00
37206;BME280;23099;42.636;23.198;2023-01-25T09:13:16;92886.84;;;-0.23;100.00
37206;BME280;23099;42.636;23.198;2023-01-25T09:15:42;92880.03;;;-0.24;100.00
37206;BME280;23099;42.636;23.198;2023-01-25T09:18:09;92873.16;;;-0.15;100.00
37206;BME280;23099;42.636;23.198;2023-01-25T09:20:37;92875.72;;;-0.10;100.00
37206;BME280;23099;42.636;23.198;2023-01-25T09:23:04;92867.66;;;-0.18;100.00
37206;BME280;23099;42.636;23.198;2023-01-25T09:25:31;92867.91;;;-0.20;100.00
37206;BME280;23099;42.636;23.198;2023-01-25T09:28:00;92857.16;;;-0.18;100.00
37206;BME280;23099;42.636;23.198;2023-01-25T09:30:35;92850.31;;;-0.19;100.00
37206;BME280;23099;42.636;23.198;2023-01-25T09:33:02;92855.91;;;-0.31;100.00
37206;BME280;23099;42.636;23.198;2023-01-25T09:35:29;92856.09;;;-0.22;100.00
37206;BME280;23099;42.636;23.198;2023-01-25T09:37:56;92849.25;;;-0.18;100.00
37206;BME280;23099;42.636;23.198;2023-01-25T09:40:25;92843.69;;;-0.12;100.00
37206;BME280;23099;42.636;23.198;2023-01-25T09:43:00;92840.00;;;-0.11;100.00
37206;BME280;23099;42.636;23.198;2023-01-25T09:45:31;92839.97;;;-0.06;100.00
37206;BME280;23099;42.636;23.198;2023-01-25T09:48:03;92831.81;;;-0.04;100.00
37206;BME280;23099;42.636;23.198;2023-01-25T09:50:36;92831.34;;;-0.11;100.00
37206;BME280;23099;42.636;23.198;2023-01-25T09:53:22;92830.69;;;0.02;100.00
37206;BME280;23099;42.636;23.198;2023-01-25T09:55:53;92818.94;;;-0.01;100.00
37206;BME280;23099;42.636;23.198;2023-01-25T09:58:25;92825.03;;;-0.10;100.00
37206;BME280;23099;42.636;23.198;2023-01-25T10:01:07;92818.19;;;-0.11;100.00
37206;BME280;23099;42.636;23.198;2023-01-25T10:03:41;92808.34;;;0.05;100.00
37206;BME280;23099;42.636;23.198;2023-01-25T10:06:12;92808.69;;;-0.02;100.00
37206;BME280;23099;42.636;23.198;2023-01-25T10:08:46;92812.28;;;0.07;100.00
37206;BME280;23099;42.636;23.198;2023-01-25T10:11:19;92803.09;;;0.05;100.00
37206;BME280;23099;42.636;23.198;2023-01-25T10:13:49;92788.44;;;-0.02;100.00
37206;BME280;23099;42.636;23.198;2023-01-25T10:16:20;92795.47;;;0.03;100.00
37206;BME280;23099;42.636;23.198;2023-01-25T10:18:56;92793.91;;;0.02;100.00
37206;BME280;23099;42.636;23.198;2023-01-25T10:21:28;92787.09;;;0.01;100.00
37206;BME280;23099;42.636;23.198;2023-01-25T10:27:18;92797.38;;;-0.03;100.00
37206;BME280;23099;42.636;23.198;2023-01-25T10:29:51;92796.34;;;-0.02;100.00
37206;BME280;23099;42.636;23.198;2023-01-25T10:32:25;92783.97;;;-0.01;100.00
37206;BME280;23099;42.636;23.198;2023-01-25T10:34:54;92772.09;;;0.02;100.00
37206;BME280;23099;42.636;23.198;2023-01-25T10:37:25;92779.16;;;0.06;100.00
37206;BME280;23099;42.636;23.198;2023-01-25T10:39:57;92777.88;;;0.04;100.00
37206;BME280;23099;42.636;23.198;2023-01-25T10:42:30;92767.09;;;0.05;100.00
37206;BME280;23099;42.636;23.198;2023-01-25T10:45:10;92771.13;;;0.26;100.00
37206;BME280;23099;42.636;23.198;2023-01-25T10:47:39;92771.19;;;0.16;100.00
37206;BME280;23099;42.636;23.198;2023-01-25T10:50:08;92763.00;;;0.23;100.00
37206;BME280;23099;42.636;23.198;2023-01-25T10:52:35;92754.72;;;0.34;100.00
37206;BME280;23099;42.636;23.198;2023-01-25T10:55:13;92755.28;;;0.31;100.00
37206;BME280;23099;42.636;23.198;2023-01-25T10:57:46;92753.66;;;0.35;100.00
37206;BME280;23099;42.636;23.198;2023-01-25T11:00:23;92754.44;;;0.36;100.00
37206;BME280;23099;42.636;23.198;2023-01-25T11:02:52;92754.44;;;0.36;100.00
37206;BME280;23099;42.636;23.198;2023-01-25T11:05:27;92744.88;;;0.45;100.00
37206;BME280;23099;42.636;23.198;2023-01-25T11:07:55;92753.63;;;0.41;100.00
37206;BME280;23099;42.636;23.198;2023-01-25T11:10:28;92749.47;;;0.34;100.00
37206;BME280;23099;42.636;23.198;2023-01-25T11:13:18;92747.22;;;0.47;100.00
37206;BME280;23099;42.636;23.198;2023-01-25T11:15:48;92725.75;;;0.40;100.00
37206;BME280;23099;42.636;23.198;2023-01-25T11:18:18;92740.66;;;0.44;100.00
37206;BME280;23099;42.636;23.198;2023-01-25T11:20:46;92740.19;;;0.42;100.00
37206;BME280;23099;42.636;23.198;2023-01-25T11:23:21;92728.25;;;0.50;100.00
37206;BME280;23099;42.636;23.198;2023-01-25T11:25:49;92730.66;;;0.46;100.00
37206;BME280;23099;42.636;23.198;2023-01-25T11:28:18;92724.56;;;0.51;100.00
37206;BME280;23099;42.636;23.198;2023-01-25T11:30:48;92723.50;;;0.52;100.00
37206;BME280;23099;42.636;23.198;2023-01-25T11:33:16;92715.06;;;0.55;100.00
37206;BME280;23099;42.636;23.198;2023-01-25T11:36:02;92699.16;;;0.65;100.00
37206;BME280;23099;42.636;23.198;2023-01-25T11:38:31;92697.25;;;0.70;100.00
37206;BME280;23099;42.636;23.198;2023-01-25T11:41:05;92692.09;;;0.60;100.00
37206;BME280;23099;42.636;23.198;2023-01-25T11:43:58;92698.31;;;0.69;100.00
37206;BME280;23099;42.636;23.198;2023-01-25T11:46:40;92682.72;;;0.73;100.00
37206;BME280;23099;42.636;23.198;2023-01-25T11:49:17;92686.88;;;0.79;100.00
37206;BME280;23099;42.636;23.198;2023-01-25T11:51:49;92675.69;;;0.87;100.00
37206;BME280;23099;42.636;23.198;2023-01-25T11:54:32;92674.00;;;0.78;100.00
37206;BME280;23099;42.636;23.198;2023-01-25T11:57:08;92679.34;;;0.91;100.00
37206;BME280;23099;42.636;23.198;2023-01-25T11:59:53;92664.59;;;0.90;100.00
37206;BME280;23099;42.636;23.198;2023-01-25T12:05:27;92665.84;;;0.98;100.00
37206;BME280;23099;42.636;23.198;2023-01-25T12:08:19;92659.34;;;0.72;100.00
37206;BME280;23099;42.636;23.198;2023-01-25T12:10:55;92658.84;;;0.69;100.00
37206;BME280;23099;42.636;23.198;2023-01-25T12:13:31;92654.44;;;0.65;100.00
37206;BME280;23099;42.636;23.198;2023-01-25T12:16:11;92652.03;;;0.68;100.00
37206;BME280;23099;42.636;23.198;2023-01-25T12:18:52;92648.44;;;0.59;100.00
37206;BME280;23099;42.636;23.198;2023-01-25T12:21:37;92635.75;;;0.66;100.00
37206;BME280;23099;42.636;23.198;2023-01-25T12:24:21;92646.75;;;0.68;100.00
37206;BME280;23099;42.636;23.198;2023-01-25T12:26:57;92644.34;;;0.72;100.00
37206;BME280;23099;42.636;23.198;2023-01-25T12:29:31;92650.59;;;0.57;100.00
37206;BME280;23099;42.636;23.198;2023-01-25T12:32:03;92633.16;;;0.61;100.00
37206;BME280;23099;42.636;23.198;2023-01-25T12:34:35;92638.50;;;0.56;100.00
37206;BME280;23099;42.636;23.198;2023-01-25T12:37:07;92634.41;;;0.69;100.00
37206;BME280;23099;42.636;23.198;2023-01-25T12:39:41;92632.53;;;0.69;100.00
37206;BME280;23099;42.636;23.198;2023-01-25T12:42:15;92641.00;;;0.66;100.00
37206;BME280;23099;42.636;23.198;2023-01-25T12:44:46;92632.38;;;0.61;100.00
37206;BME280;23099;42.636;23.198;2023-01-25T12:47:18;92626.78;;;0.67;100.00
37206;BME280;23099;42.636;23.198;2023-01-25T12:49:50;92622.81;;;0.70;100.00
37206;BME280;23099;42.636;23.198;2023-01-25T12:52:22;92624.28;;;0.76;100.00
37206;BME280;23099;42.636;23.198;2023-01-25T12:54:52;92623.31;;;0.72;100.00
37206;BME280;23099;42.636;23.198;2023-01-25T12:57:25;92612.34;;;0.84;100.00
37206;BME280;23099;42.636;23.198;2023-01-25T13:00:00;92616.97;;;0.92;100.00
37206;BME280;23099;42.636;23.198;2023-01-25T13:02:51;92607.66;;;0.81;100.00
37206;BME280;23099;42.636;23.198;2023-01-25T13:05:28;92601.59;;;0.99;100.00